sensor_id;sensor_type;location;lat;lon;timestamp;pressure;altitude;pressure_sealevel;temperature;humidity
20630;BME280;17386;43.846;25.950;2022-07-29T00:01:49;101255.09;;;25.75;97.32
20630;BME280;17386;43.846;25.950;2022-07-29T00:04:14;101258.81;;;25.74;97.35
20630;BME280;17386;43.846;25.950;2022-07-29T00:06:40;101261.53;;;25.74;97.67
20630;BME280;17386;43.846;25.950;2022-07-29T00:09:06;101259.19;;;25.70;97.28
20630;BME280;17386;43.846;25.950;2022-07-29T00:11:32;101256.63;;;25.68;97.23
20630;BME280;17386;43.846;25.950;2022-07-29T00:13:57;101266.19;;;25.62;95.43
20630;BME280;17386;43.846;25.950;2022-07-29T00:16:23;101272.66;;;25.61;95.80
20630;BME280;17386;43.846;25.950;2022-07-29T00:18:48;101278.50;;;25.57;94.96
20630;BME280;17386;43.846;25.950;2022-07-29T00:21:14;101278.78;;;25.54;94.30
20630;BME280;17386;43.846;25.950;2022-07-29T00:23:39;101278.03;;;25.52;92.78
20630;BME280;17386;43.846;25.950;2022-07-29T00:26:05;101279.19;;;25.49;90.68
20630;BME280;17386;43.846;25.950;2022-07-29T00:28:30;101278.34;;;25.49;89.31
20630;BME280;17386;43.846;25.950;2022-07-29T00:30:55;101283.91;;;25.47;87.96
20630;BME280;17386;43.846;25.950;2022-07-29T00:33:21;101275.31;;;25.42;85.15
20630;BME280;17386;43.846;25.950;2022-07-29T00:35:48;101276.84;;;25.35;83.75
20630;BME280;17386;43.846;25.950;2022-07-29T00:38:15;101273.53;;;25.31;83.63
20630;BME280;17386;43.846;25.950;2022-07-29T00:40:41;101278.00;;;25.32;83.86
20630;BME280;17386;43.846;25.950;2022-07-29T00:43:07;101284.94;;;25.25;83.76
20630;BME280;17386;43.846;25.950;2022-07-29T00:45:33;101274.06;;;25.25;83.89
20630;BME280;17386;43.846;25.950;2022-07-29T00:47:59;101272.50;;;25.23;83.17
20630;BME280;17386;43.846;25.950;2022-07-29T00:50:25;101284.09;;;25.25;82.60
20630;BME280;17386;43.846;25.950;2022-07-29T00:52:51;101279.50;;;25.25;82.37
20630;BME280;17386;43.846;25.950;2022-07-29T00:55:17;101278.09;;;25.21;81.68
20630;BME280;17386;43.846;25.950;2022-07-29T00:57:45;101275.63;;;25.18;81.25
20630;BME280;17386;43.846;25.950;2022-07-29T01:00:17;101273.34;;;25.14;80.83
20630;BME280;17386;43.846;25.950;2022-07-29T01:02:44;101266.72;;;25.06;80.88
20630;BME280;17386;43.846;25.950;2022-07-29T01:05:11;101266.38;;;25.00;80.42
20630;BME280;17386;43.846;25.950;2022-07-29T01:07:38;101273.91;;;24.96;80.59
20630;BME280;17386;43.846;25.950;2022-07-29T01:10:06;101275.59;;;24.88;80.29
20630;BME280;17386;43.846;25.950;2022-07-29T01:12:34;101280.41;;;24.84;80.85
20630;BME280;17386;43.846;25.950;2022-07-29T01:15:01;101269.53;;;24.84;81.00
20630;BME280;17386;43.846;25.950;2022-07-29T01:20:20;101266.97;;;24.82;81.85
20630;BME280;17386;43.846;25.950;2022-07-29T01:23:16;101265.41;;;24.80;82.53
20630;BME280;17386;43.846;25.950;2022-07-29T01:25:54;101260.81;;;24.80;83.31
20630;BME280;17386;43.846;25.950;2022-07-29T01:28:57;101260.97;;;24.79;84.12
20630;BME280;17386;43.846;25.950;2022-07-29T01:31:31;101253.59;;;24.70;84.43
20630;BME280;17386;43.846;25.950;2022-07-29T01:34:01;101250.75;;;24.71;84.45
20630;BME280;17386;43.846;25.950;2022-07-29T01:36:38;101257.31;;;24.69;83.46
20630;BME280;17386;43.846;25.950;2022-07-29T01:39:16;101260.31;;;24.66;83.61
20630;BME280;17386;43.846;25.950;2022-07-29T01:41:49;101253.53;;;24.60;82.85
20630;BME280;17386;43.846;25.950;2022-07-29T01:44:22;101259.97;;;24.59;83.18
20630;BME280;17386;43.846;25.950;2022-07-29T01:46:54;101259.38;;;24.55;82.71
20630;BME280;17386;43.846;25.950;2022-07-29T01:49:27;101253.34;;;24.52;82.51
20630;BME280;17386;43.846;25.950;2022-07-29T01:52:07;101267.31;;;24.47;82.12
20630;BME280;17386;43.846;25.950;2022-07-29T01:54:46;101267.84;;;24.41;82.17
20630;BME280;17386;43.846;25.950;2022-07-29T01:57:16;101268.25;;;24.37;81.82
20630;BME280;17386;43.846;25.950;2022-07-29T01:59:45;101269.34;;;24.34;81.91
20630;BME280;17386;43.846;25.950;2022-07-29T02:02:14;101274.69;;;24.24;82.22
20630;BME280;17386;43.846;25.950;2022-07-29T02:04:41;101261.69;;;24.28;82.36
20630;BME280;17386;43.846;25.950;2022-07-29T02:07:10;101264.03;;;24.33;82.54
20630;BME280;17386;43.846;25.950;2022-07-29T02:09:39;101262.31;;;24.32;82.19
20630;BME280;17386;43.846;25.950;2022-07-29T02:12:07;101265.03;;;24.32;81.88
20630;BME280;17386;43.846;25.950;2022-07-29T02:14:38;101262.84;;;24.25;81.59
20630;BME280;17386;43.846;25.950;2022-07-29T02:17:03;101255.94;;;24.21;81.76
20630;BME280;17386;43.846;25.950;2022-07-29T02:19:31;101256.06;;;24.20;82.07
20630;BME280;17386;43.846;25.950;2022-07-29T02:21:58;101259.63;;;24.20;81.30
20630;BME280;17386;43.846;25.950;2022-07-29T02:24:25;101267.53;;;24.23;81.77
20630;BME280;17386;43.846;25.950;2022-07-29T02:26:53;101265.06;;;24.20;81.97
20630;BME280;17386;43.846;25.950;2022-07-29T02:29:23;101255.22;;;24.19;82.25
20630;BME280;17386;43.846;25.950;2022-07-29T02:31:49;101251.63;;;24.19;82.34
20630;BME280;17386;43.846;25.950;2022-07-29T02:34:17;101259.06;;;24.17;82.78
20630;BME280;17386;43.846;25.950;2022-07-29T02:36:44;101263.88;;;24.13;82.95
20630;BME280;17386;43.846;25.950;2022-07-29T02:39:11;101257.84;;;24.10;83.24
20630;BME280;17386;43.846;25.950;2022-07-29T02:41:43;101265.84;;;24.11;83.03
20630;BME280;17386;43.846;25.950;2022-07-29T02:44:16;101256.50;;;24.04;82.72
20630;BME280;17386;43.846;25.950;2022-07-29T02:46:46;101258.50;;;24.02;82.69
20630;BME280;17386;43.846;25.950;2022-07-29T02:49:38;101265.75;;;24.01;82.89
20630;BME280;17386;43.846;25.950;2022-07-29T02:52:10;101279.31;;;24.01;82.85
20630;BME280;17386;43.846;25.950;2022-07-29T02:54:42;101281.94;;;24.03;83.68
20630;BME280;17386;43.846;25.950;2022-07-29T02:59:52;101279.22;;;24.03;84.71
20630;BME280;17386;43.846;25.950;2022-07-29T03:02:20;101280.22;;;24.02;85.92
20630;BME280;17386;43.846;25.950;2022-07-29T03:04:47;101279.59;;;23.98;87.15
20630;BME280;17386;43.846;25.950;2022-07-29T03:07:15;101278.38;;;23.91;87.82
20630;BME280;17386;43.846;25.950;2022-07-29T03:09:44;101277.66;;;23.89;88.66
20630;BME280;17386;43.846;25.950;2022-07-29T03:12:10;101285.16;;;23.86;89.14
20630;BME280;17386;43.846;25.950;2022-07-29T03:14:37;101291.09;;;23.80;91.16
20630;BME280;17386;43.846;25.950;2022-07-29T03:17:03;101298.16;;;23.82;89.93
20630;BME280;17386;43.846;25.950;2022-07-29T03:19:30;101293.69;;;23.81;89.97
20630;BME280;17386;43.846;25.950;2022-07-29T03:21:59;101293.34;;;23.74;90.07
20630;BME280;17386;43.846;25.950;2022-07-29T03:24:32;101298.03;;;23.72;90.55
20630;BME280;17386;43.846;25.950;2022-07-29T03:26:58;101294.31;;;23.73;90.85
20630;BME280;17386;43.846;25.950;2022-07-29T03:29:24;101297.03;;;23.73;90.56
20630;BME280;17386;43.846;25.950;2022-07-29T03:31:50;101296.94;;;23.75;89.66
20630;BME280;17386;43.846;25.950;2022-07-29T03:34:16;101294.09;;;23.77;89.80
20630;BME280;17386;43.846;25.950;2022-07-29T03:36:41;101298.25;;;23.81;88.64
20630;BME280;17386;43.846;25.950;2022-07-29T03:39:07;101278.03;;;23.73;87.58
20630;BME280;17386;43.846;25.950;2022-07-29T03:41:35;101301.22;;;23.78;86.73
20630;BME280;17386;43.846;25.950;2022-07-29T03:44:02;101299.09;;;23.81;86.24
20630;BME280;17386;43.846;25.950;2022-07-29T03:46:28;101301.81;;;23.81;85.22
20630;BME280;17386;43.846;25.950;2022-07-29T03:48:58;101300.00;;;23.82;84.62
20630;BME280;17386;43.846;25.950;2022-07-29T03:51:25;101301.59;;;23.84;84.23
20630;BME280;17386;43.846;25.950;2022-07-29T03:53:52;101306.16;;;23.84;84.31
20630;BME280;17386;43.846;25.950;2022-07-29T03:56:21;101300.47;;;23.87;83.96
20630;BME280;17386;43.846;25.950;2022-07-29T03:58:50;101308.38;;;23.90;82.67
20630;BME280;17386;43.846;25.950;2022-07-29T04:01:17;101312.78;;;23.91;81.97
20630;BME280;17386;43.846;25.950;2022-07-29T04:03:44;101314.25;;;23.95;81.38
20630;BME280;17386;43.846;25.950;2022-07-29T04:06:12;101312.16;;;23.87;81.52
20630;BME280;17386;43.846;25.950;2022-07-29T04:08:38;101304.53;;;23.92;81.85
20630;BME280;17386;43.846;25.950;2022-07-29T04:11:04;101313.03;;;23.99;80.96
20630;BME280;17386;43.846;25.950;2022-07-29T04:13:31;101308.22;;;24.02;80.99
20630;BME280;17386;43.846;25.950;2022-07-29T04:15:56;101307.94;;;24.06;81.34
20630;BME280;17386;43.846;25.950;2022-07-29T04:18:22;101306.94;;;24.07;80.88
20630;BME280;17386;43.846;25.950;2022-07-29T04:20:48;101321.00;;;24.12;79.71
20630;BME280;17386;43.846;25.950;2022-07-29T04:23:13;101321.72;;;24.14;79.84
20630;BME280;17386;43.846;25.950;2022-07-29T04:25:39;101326.16;;;24.15;80.23
20630;BME280;17386;43.846;25.950;2022-07-29T04:28:06;101321.22;;;24.20;79.72
20630;BME280;17386;43.846;25.950;2022-07-29T04:30:32;101328.00;;;24.25;79.23
20630;BME280;17386;43.846;25.950;2022-07-29T04:32:59;101313.03;;;24.31;78.64
20630;BME280;17386;43.846;25.950;2022-07-29T04:35:26;101320.09;;;24.34;78.49
20630;BME280;17386;43.846;25.950;2022-07-29T04:37:52;101333.28;;;24.38;78.64
20630;BME280;17386;43.846;25.950;2022-07-29T04:40:17;101328.72;;;24.39;78.66
20630;BME280;17386;43.846;25.950;2022-07-29T04:42:42;101331.06;;;24.43;78.60
20630;BME280;17386;43.846;25.950;2022-07-29T04:45:08;101326.22;;;24.47;78.96
20630;BME280;17386;43.846;25.950;2022-07-29T04:47:34;101327.53;;;24.52;78.37
20630;BME280;17386;43.846;25.950;2022-07-29T04:49:59;101329.75;;;24.59;77.78
20630;BME280;17386;43.846;25.950;2022-07-29T04:52:24;101325.66;;;24.64;77.87
20630;BME280;17386;43.846;25.950;2022-07-29T04:54:50;101325.38;;;24.67;77.42
20630;BME280;17386;43.846;25.950;2022-07-29T04:57:15;101339.28;;;24.74;76.76
20630;BME280;17386;43.846;25.950;2022-07-29T04:59:41;101342.16;;;24.72;76.56
20630;BME280;17386;43.846;25.950;2022-07-29T05:02:06;101338.75;;;24.80;76.41
20630;BME280;17386;43.846;25.950;2022-07-29T05:04:31;101332.81;;;24.86;75.87
20630;BME280;17386;43.846;25.950;2022-07-29T05:06:57;101342.72;;;24.97;75.66
20630;BME280;17386;43.846;25.950;2022-07-29T05:09:22;101348.13;;;25.08;74.97
20630;BME280;17386;43.846;25.950;2022-07-29T05:11:48;101341.16;;;25.15;74.85
20630;BME280;17386;43.846;25.950;2022-07-29T05:14:13;101342.19;;;25.24;75.07
20630;BME280;17386;43.846;25.950;2022-07-29T05:16:39;101336.94;;;25.32;74.51
20630;BME280;17386;43.846;25.950;2022-07-29T05:19:05;101339.13;;;25.38;73.95
20630;BME280;17386;43.846;25.950;2022-07-29T05:21:31;101346.06;;;25.52;74.06
20630;BME280;17386;43.846;25.950;2022-07-29T05:23:56;101346.13;;;25.61;73.02
20630;BME280;17386;43.846;25.950;2022-07-29T05:26:22;101346.28;;;25.70;72.75
20630;BME280;17386;43.846;25.950;2022-07-29T05:28:47;101348.34;;;25.77;72.88
20630;BME280;17386;43.846;25.950;2022-07-29T05:31:12;101347.50;;;25.86;72.36
20630;BME280;17386;43.846;25.950;2022-07-29T05:33:42;101358.13;;;25.89;71.53
20630;BME280;17386;43.846;25.950;2022-07-29T05:36:07;101342.81;;;25.98;71.32
20630;BME280;17386;43.846;25.950;2022-07-29T05:38:34;101352.72;;;26.09;70.74
20630;BME280;17386;43.846;25.950;2022-07-29T05:40:59;101344.00;;;26.15;70.71
20630;BME280;17386;43.846;25.950;2022-07-29T05:43:26;101349.31;;;26.26;70.73
20630;BME280;17386;43.846;25.950;2022-07-29T05:45:52;101353.47;;;26.30;70.91
20630;BME280;17386;43.846;25.950;2022-07-29T05:48:17;101347.91;;;26.41;71.01
20630;BME280;17386;43.846;25.950;2022-07-29T05:50:43;101342.31;;;26.53;70.76
20630;BME280;17386;43.846;25.950;2022-07-29T05:53:08;101343.78;;;26.57;70.18
20630;BME280;17386;43.846;25.950;2022-07-29T05:55:33;101349.06;;;26.68;70.77
20630;BME280;17386;43.846;25.950;2022-07-29T05:57:59;101345.75;;;26.74;70.33
20630;BME280;17386;43.846;25.950;2022-07-29T06:00:24;101349.47;;;26.83;70.88
20630;BME280;17386;43.846;25.950;2022-07-29T06:02:50;101354.91;;;26.83;68.37
20630;BME280;17386;43.846;25.950;2022-07-29T06:05:15;101344.31;;;26.80;69.00
20630;BME280;17386;43.846;25.950;2022-07-29T06:07:41;101352.63;;;26.97;69.86
20630;BME280;17386;43.846;25.950;2022-07-29T06:10:06;101342.41;;;27.09;69.52
20630;BME280;17386;43.846;25.950;2022-07-29T06:12:32;101349.13;;;27.24;65.86
20630;BME280;17386;43.846;25.950;2022-07-29T06:14:57;101346.78;;;27.39;64.21
20630;BME280;17386;43.846;25.950;2022-07-29T06:17:23;101342.72;;;27.53;63.32
20630;BME280;17386;43.846;25.950;2022-07-29T06:19:49;101340.50;;;27.66;62.89
20630;BME280;17386;43.846;25.950;2022-07-29T06:22:17;101352.94;;;27.78;61.45
20630;BME280;17386;43.846;25.950;2022-07-29T06:24:43;101350.22;;;27.78;59.42
20630;BME280;17386;43.846;25.950;2022-07-29T06:27:10;101349.78;;;27.83;59.70
20630;BME280;17386;43.846;25.950;2022-07-29T06:29:36;101353.06;;;27.87;59.34
20630;BME280;17386;43.846;25.950;2022-07-29T06:32:02;101353.47;;;27.92;60.35
20630;BME280;17386;43.846;25.950;2022-07-29T06:34:27;101358.72;;;28.03;60.88
20630;BME280;17386;43.846;25.950;2022-07-29T06:36:53;101348.44;;;28.15;60.40
20630;BME280;17386;43.846;25.950;2022-07-29T06:39:19;101341.97;;;28.16;60.10
20630;BME280;17386;43.846;25.950;2022-07-29T06:41:49;101350.94;;;28.26;60.57
20630;BME280;17386;43.846;25.950;2022-07-29T06:44:16;101351.94;;;28.34;59.92
20630;BME280;17386;43.846;25.950;2022-07-29T06:46:41;101357.47;;;28.43;59.54
20630;BME280;17386;43.846;25.950;2022-07-29T06:49:07;101354.81;;;28.51;58.63
20630;BME280;17386;43.846;25.950;2022-07-29T06:51:33;101352.31;;;28.57;57.92
20630;BME280;17386;43.846;25.950;2022-07-29T06:53:58;101345.50;;;28.61;57.99
20630;BME280;17386;43.846;25.950;2022-07-29T06:56:24;101343.53;;;28.72;57.86
20630;BME280;17386;43.846;25.950;2022-07-29T06:58:50;101345.31;;;28.81;57.18
20630;BME280;17386;43.846;25.950;2022-07-29T07:01:15;101350.72;;;28.91;55.41
20630;BME280;17386;43.846;25.950;2022-07-29T07:03:41;101353.19;;;29.02;54.72
20630;BME280;17386;43.846;25.950;2022-07-29T07:06:07;101349.66;;;29.09;54.17
20630;BME280;17386;43.846;25.950;2022-07-29T07:08:33;101353.69;;;29.23;53.75
20630;BME280;17386;43.846;25.950;2022-07-29T07:10:59;101346.06;;;29.35;53.06
20630;BME280;17386;43.846;25.950;2022-07-29T07:13:25;101348.31;;;29.39;52.67
20630;BME280;17386;43.846;25.950;2022-07-29T07:15:51;101346.22;;;29.51;52.25
20630;BME280;17386;43.846;25.950;2022-07-29T07:18:18;101338.38;;;29.64;51.80
20630;BME280;17386;43.846;25.950;2022-07-29T07:20:43;101341.84;;;29.75;51.70
20630;BME280;17386;43.846;25.950;2022-07-29T07:23:09;101344.59;;;29.75;51.06
20630;BME280;17386;43.846;25.950;2022-07-29T07:25:35;101333.16;;;29.79;50.79
20630;BME280;17386;43.846;25.950;2022-07-29T07:28:01;101340.00;;;29.91;50.40
20630;BME280;17386;43.846;25.950;2022-07-29T07:30:26;101333.03;;;30.05;50.24
20630;BME280;17386;43.846;25.950;2022-07-29T07:32:52;101327.44;;;30.15;49.17
20630;BME280;17386;43.846;25.950;2022-07-29T07:35:18;101324.03;;;30.29;48.88
20630;BME280;17386;43.846;25.950;2022-07-29T07:37:43;101324.75;;;30.47;47.85
20630;BME280;17386;43.846;25.950;2022-07-29T07:40:10;101317.38;;;30.56;47.19
20630;BME280;17386;43.846;25.950;2022-07-29T07:42:40;101324.09;;;30.70;46.39
20630;BME280;17386;43.846;25.950;2022-07-29T07:45:06;101317.41;;;30.72;45.34
20630;BME280;17386;43.846;25.950;2022-07-29T07:47:32;101319.47;;;30.78;44.15
20630;BME280;17386;43.846;25.950;2022-07-29T07:49:58;101326.31;;;30.74;44.02
20630;BME280;17386;43.846;25.950;2022-07-29T07:52:23;101327.16;;;30.91;43.43
20630;BME280;17386;43.846;25.950;2022-07-29T07:54:49;101334.16;;;31.02;43.12
20630;BME280;17386;43.846;25.950;2022-07-29T07:57:15;101327.47;;;31.13;41.77
20630;BME280;17386;43.846;25.950;2022-07-29T07:59:41;101318.06;;;31.23;41.74
20630;BME280;17386;43.846;25.950;2022-07-29T08:02:07;101310.84;;;31.30;41.61
20630;BME280;17386;43.846;25.950;2022-07-29T08:04:33;101317.69;;;31.26;41.10
20630;BME280;17386;43.846;25.950;2022-07-29T08:06:59;101309.13;;;31.29;41.35
20630;BME280;17386;43.846;25.950;2022-07-29T08:09:26;101309.25;;;31.44;41.66
20630;BME280;17386;43.846;25.950;2022-07-29T08:11:52;101316.91;;;31.57;40.36
20630;BME280;17386;43.846;25.950;2022-07-29T08:14:18;101309.50;;;31.66;39.99
20630;BME280;17386;43.846;25.950;2022-07-29T08:16:44;101320.59;;;31.80;40.28
20630;BME280;17386;43.846;25.950;2022-07-29T08:19:10;101311.09;;;31.91;40.30
20630;BME280;17386;43.846;25.950;2022-07-29T08:21:35;101310.88;;;32.01;39.97
20630;BME280;17386;43.846;25.950;2022-07-29T08:24:01;101316.25;;;32.17;39.93
20630;BME280;17386;43.846;25.950;2022-07-29T08:26:45;101306.94;;;32.26;39.08
20630;BME280;17386;43.846;25.950;2022-07-29T08:29:11;101308.44;;;32.29;38.85
20630;BME280;17386;43.846;25.950;2022-07-29T08:31:37;101299.31;;;32.36;38.62
20630;BME280;17386;43.846;25.950;2022-07-29T08:34:03;101308.53;;;32.44;39.15
20630;BME280;17386;43.846;25.950;2022-07-29T08:36:30;101303.81;;;32.52;38.85
20630;BME280;17386;43.846;25.950;2022-07-29T08:38:56;101302.16;;;32.66;38.62
20630;BME280;17386;43.846;25.950;2022-07-29T08:41:22;101303.13;;;32.73;39.29
20630;BME280;17386;43.846;25.950;2022-07-29T08:43:48;101288.91;;;32.84;38.55
20630;BME280;17386;43.846;25.950;2022-07-29T08:46:15;101297.97;;;32.93;38.42
20630;BME280;17386;43.846;25.950;2022-07-29T08:48:41;101291.84;;;32.83;38.09
20630;BME280;17386;43.846;25.950;2022-07-29T08:51:07;101285.56;;;32.97;38.24
20630;BME280;17386;43.846;25.950;2022-07-29T08:53:33;101284.91;;;33.10;37.79
20630;BME280;17386;43.846;25.950;2022-07-29T08:55:59;101285.19;;;33.15;38.22
20630;BME280;17386;43.846;25.950;2022-07-29T08:58:26;101276.34;;;33.19;38.39
20630;BME280;17386;43.846;25.950;2022-07-29T09:00:55;101283.00;;;33.10;37.55
20630;BME280;17386;43.846;25.950;2022-07-29T09:03:23;101275.50;;;33.19;37.62
20630;BME280;17386;43.846;25.950;2022-07-29T09:05:49;101270.56;;;33.29;37.22
20630;BME280;17386;43.846;25.950;2022-07-29T09:08:16;101268.75;;;33.36;37.61
20630;BME280;17386;43.846;25.950;2022-07-29T09:10:43;101264.03;;;33.45;36.97
20630;BME280;17386;43.846;25.950;2022-07-29T09:13:08;101257.88;;;33.43;36.94
20630;BME280;17386;43.846;25.950;2022-07-29T09:15:34;101267.22;;;33.48;37.34
20630;BME280;17386;43.846;25.950;2022-07-29T09:18:00;101264.22;;;33.43;36.98
20630;BME280;17386;43.846;25.950;2022-07-29T09:20:26;101264.31;;;33.50;36.94
20630;BME280;17386;43.846;25.950;2022-07-29T09:23:11;101259.06;;;33.55;37.40
20630;BME280;17386;43.846;25.950;2022-07-29T09:25:38;101264.00;;;33.60;36.75
20630;BME280;17386;43.846;25.950;2022-07-29T09:28:23;101255.91;;;33.73;37.02
20630;BME280;17386;43.846;25.950;2022-07-29T09:30:53;101262.81;;;33.84;36.69
20630;BME280;17386;43.846;25.950;2022-07-29T09:33:19;101264.69;;;33.98;35.61
20630;BME280;17386;43.846;25.950;2022-07-29T09:35:45;101260.41;;;33.95;36.16
20630;BME280;17386;43.846;25.950;2022-07-29T09:38:12;101263.44;;;34.00;35.29
20630;BME280;17386;43.846;25.950;2022-07-29T09:40:38;101265.50;;;34.13;35.47
20630;BME280;17386;43.846;25.950;2022-07-29T09:43:11;101260.41;;;34.17;35.43
20630;BME280;17386;43.846;25.950;2022-07-29T09:45:37;101250.19;;;34.32;35.78
20630;BME280;17386;43.846;25.950;2022-07-29T09:48:15;101251.00;;;34.47;34.59
20630;BME280;17386;43.846;25.950;2022-07-29T09:50:44;101248.06;;;34.55;33.56
20630;BME280;17386;43.846;25.950;2022-07-29T09:53:10;101252.66;;;34.70;33.69
20630;BME280;17386;43.846;25.950;2022-07-29T09:55:49;101244.78;;;34.24;34.50
20630;BME280;17386;43.846;25.950;2022-07-29T09:58:16;101240.19;;;34.31;34.70
20630;BME280;17386;43.846;25.950;2022-07-29T10:00:43;101234.75;;;34.59;34.54
20630;BME280;17386;43.846;25.950;2022-07-29T10:03:09;101238.94;;;34.83;33.66
20630;BME280;17386;43.846;25.950;2022-07-29T10:05:34;101234.72;;;34.87;33.35
20630;BME280;17386;43.846;25.950;2022-07-29T10:08:00;101235.53;;;35.09;33.36
20630;BME280;17386;43.846;25.950;2022-07-29T10:10:34;101227.13;;;35.30;33.16
20630;BME280;17386;43.846;25.950;2022-07-29T10:13:05;101231.13;;;35.62;32.30
20630;BME280;17386;43.846;25.950;2022-07-29T10:15:34;101234.44;;;36.12;31.57
20630;BME280;17386;43.846;25.950;2022-07-29T10:18:08;101227.03;;;36.79;30.24
20630;BME280;17386;43.846;25.950;2022-07-29T10:20:35;101225.84;;;37.27;29.21
20630;BME280;17386;43.846;25.950;2022-07-29T10:23:01;101216.34;;;37.99;28.61
20630;BME280;17386;43.846;25.950;2022-07-29T10:25:26;101217.72;;;38.71;27.62
20630;BME280;17386;43.846;25.950;2022-07-29T10:27:53;101215.84;;;39.27;26.86
20630;BME280;17386;43.846;25.950;2022-07-29T10:30:21;101208.47;;;39.32;25.58
20630;BME280;17386;43.846;25.950;2022-07-29T10:36:10;101207.72;;;40.04;24.92
20630;BME280;17386;43.846;25.950;2022-07-29T10:38:44;101210.50;;;40.92;24.15
20630;BME280;17386;43.846;25.950;2022-07-29T10:44:07;101204.09;;;42.18;22.43
20630;BME280;17386;43.846;25.950;2022-07-29T10:46:39;101196.53;;;42.69;21.90
20630;BME280;17386;43.846;25.950;2022-07-29T10:49:15;101188.63;;;42.99;21.19
20630;BME280;17386;43.846;25.950;2022-07-29T10:59:43;101180.31;;;43.04;21.07
20630;BME280;17386;43.846;25.950;2022-07-29T11:05:08;101173.94;;;43.09;20.79
20630;BME280;17386;43.846;25.950;2022-07-29T11:07:36;101166.16;;;42.72;21.08
20630;BME280;17386;43.846;25.950;2022-07-29T11:15:04;101156.16;;;43.69;21.13
20630;BME280;17386;43.846;25.950;2022-07-29T11:23:28;101137.63;;;43.36;22.08
20630;BME280;17386;43.846;25.950;2022-07-29T11:28:37;101133.13;;;42.30;22.52
20630;BME280;17386;43.846;25.950;2022-07-29T11:31:05;101134.13;;;41.91;23.77
20630;BME280;17386;43.846;25.950;2022-07-29T11:33:33;101133.91;;;41.64;24.77
20630;BME280;17386;43.846;25.950;2022-07-29T11:36:12;101130.09;;;40.61;24.92
20630;BME280;17386;43.846;25.950;2022-07-29T11:38:38;101136.91;;;39.88;24.99
20630;BME280;17386;43.846;25.950;2022-07-29T11:41:24;101128.16;;;38.94;26.68
20630;BME280;17386;43.846;25.950;2022-07-29T11:43:52;101131.84;;;38.51;26.79
20630;BME280;17386;43.846;25.950;2022-07-29T11:46:50;101124.81;;;37.99;27.34
20630;BME280;17386;43.846;25.950;2022-07-29T11:49:26;101116.00;;;37.77;28.06
20630;BME280;17386;43.846;25.950;2022-07-29T11:51:56;101118.25;;;37.62;29.03
20630;BME280;17386;43.846;25.950;2022-07-29T11:54:30;101114.78;;;37.41;29.74
20630;BME280;17386;43.846;25.950;2022-07-29T11:56:57;101105.84;;;36.88;29.82
20630;BME280;17386;43.846;25.950;2022-07-29T11:59:24;101105.25;;;36.66;30.41
20630;BME280;17386;43.846;25.950;2022-07-29T12:01:57;101101.66;;;36.59;29.87
20630;BME280;17386;43.846;25.950;2022-07-29T12:04:23;101103.78;;;36.30;30.79
20630;BME280;17386;43.846;25.950;2022-07-29T12:06:53;101104.03;;;36.15;31.17
20630;BME280;17386;43.846;25.950;2022-07-29T12:09:19;101106.63;;;36.04;31.36
20630;BME280;17386;43.846;25.950;2022-07-29T12:11:46;101105.75;;;35.97;31.43
20630;BME280;17386;43.846;25.950;2022-07-29T12:17:44;101093.16;;;35.81;31.53
20630;BME280;17386;43.846;25.950;2022-07-29T12:20:10;101088.69;;;35.80;31.72
20630;BME280;17386;43.846;25.950;2022-07-29T12:22:40;101090.19;;;35.82;32.31
20630;BME280;17386;43.846;25.950;2022-07-29T12:25:11;101082.09;;;35.81;32.22
20630;BME280;17386;43.846;25.950;2022-07-29T12:27:37;101085.31;;;35.78;32.25
20630;BME280;17386;43.846;25.950;2022-07-29T12:30:12;101077.88;;;35.72;32.12
20630;BME280;17386;43.846;25.950;2022-07-29T12:32:40;101077.66;;;35.73;32.33
20630;BME280;17386;43.846;25.950;2022-07-29T12:35:10;101071.72;;;35.76;32.52
20630;BME280;17386;43.846;25.950;2022-07-29T12:37:38;101069.34;;;35.60;32.20
20630;BME280;17386;43.846;25.950;2022-07-29T12:40:05;101061.28;;;35.65;32.17
20630;BME280;17386;43.846;25.950;2022-07-29T12:42:31;101057.88;;;35.70;31.74
20630;BME280;17386;43.846;25.950;2022-07-29T12:44:57;101055.75;;;35.72;32.23
20630;BME280;17386;43.846;25.950;2022-07-29T12:47:23;101055.31;;;35.75;32.39
20630;BME280;17386;43.846;25.950;2022-07-29T12:49:50;101044.25;;;35.75;31.74
20630;BME280;17386;43.846;25.950;2022-07-29T12:52:33;101040.47;;;35.76;32.16
20630;BME280;17386;43.846;25.950;2022-07-29T12:54:59;101040.66;;;35.61;32.16
20630;BME280;17386;43.846;25.950;2022-07-29T12:57:25;101034.72;;;35.57;32.21
20630;BME280;17386;43.846;25.950;2022-07-29T13:00:08;101038.09;;;35.59;32.26
20630;BME280;17386;43.846;25.950;2022-07-29T13:02:37;101029.81;;;35.66;31.77
20630;BME280;17386;43.846;25.950;2022-07-29T13:05:04;101038.09;;;35.66;32.04
20630;BME280;17386;43.846;25.950;2022-07-29T13:07:32;101041.28;;;35.50;32.19
20630;BME280;17386;43.846;25.950;2022-07-29T13:10:29;101031.88;;;35.31;32.32
20630;BME280;17386;43.846;25.950;2022-07-29T13:13:12;101034.22;;;35.41;33.15
20630;BME280;17386;43.846;25.950;2022-07-29T13:15:40;101028.50;;;35.35;32.38
20630;BME280;17386;43.846;25.950;2022-07-29T13:18:26;101022.81;;;35.57;32.61
20630;BME280;17386;43.846;25.950;2022-07-29T13:20:52;101020.22;;;35.82;32.24
20630;BME280;17386;43.846;25.950;2022-07-29T13:23:17;101015.72;;;36.27;31.54
20630;BME280;17386;43.846;25.950;2022-07-29T13:25:43;101016.63;;;36.86;30.66